sensor_id;sensor_type;location;lat;lon;timestamp;temperature;humidity
7762;DHT22;3925;48.636;9.516;2023-04-03T00:00:20;4.70;99.90
7762;DHT22;3925;48.636;9.516;2023-04-03T00:02:46;4.60;99.90
7762;DHT22;3925;48.636;9.516;2023-04-03T00:05:13;4.70;99.90
7762;DHT22;3925;48.636;9.516;2023-04-03T00:07:40;4.60;99.90
7762;DHT22;3925;48.636;9.516;2023-04-03T00:10:09;4.80;99.90
7762;DHT22;3925;48.636;9.516;2023-04-03T00:12:36;5.00;99.90
7762;DHT22;3925;48.636;9.516;2023-04-03T00:15:04;4.90;99.90
7762;DHT22;3925;48.636;9.516;2023-04-03T00:17:31;4.80;99.90
7762;DHT22;3925;48.636;9.516;2023-04-03T00:19:58;4.80;99.90
7762;DHT22;3925;48.636;9.516;2023-04-03T00:22:24;4.80;99.90
7762;DHT22;3925;48.636;9.516;2023-04-03T00:24:52;4.90;99.90
7762;DHT22;3925;48.636;9.516;2023-04-03T00:27:20;4.80;99.90
7762;DHT22;3925;48.636;9.516;2023-04-03T00:29:47;4.80;99.90
7762;DHT22;3925;48.636;9.516;2023-04-03T00:32:14;4.70;99.90
7762;DHT22;3925;48.636;9.516;2023-04-03T00:34:41;4.80;99.90
7762;DHT22;3925;48.636;9.516;2023-04-03T00:37:08;4.80;99.90
7762;DHT22;3925;48.636;9.516;2023-04-03T00:39:34;4.70;99.90
7762;DHT22;3925;48.636;9.516;2023-04-03T00:42:01;4.80;99.90
7762;DHT22;3925;48.636;9.516;2023-04-03T00:47:34;5.00;99.90
7762;DHT22;3925;48.636;9.516;2023-04-03T00:50:01;5.10;99.90
7762;DHT22;3925;48.636;9.516;2023-04-03T00:52:29;5.00;99.90
7762;DHT22;3925;48.636;9.516;2023-04-03T00:55:00;5.00;99.90
7762;DHT22;3925;48.636;9.516;2023-04-03T00:57:29;5.00;99.90
7762;DHT22;3925;48.636;9.516;2023-04-03T01:00:01;5.10;99.90
7762;DHT22;3925;48.636;9.516;2023-04-03T01:02:30;4.90;99.90
7762;DHT22;3925;48.636;9.516;2023-04-03T01:04:58;4.80;99.90
7762;DHT22;3925;48.636;9.516;2023-04-03T01:07:29;5.00;99.90
7762;DHT22;3925;48.636;9.516;2023-04-03T01:09:58;4.70;99.90
7762;DHT22;3925;48.636;9.516;2023-04-03T01:12:27;4.50;99.90
7762;DHT22;3925;48.636;9.516;2023-04-03T01:14:56;4.80;99.90
7762;DHT22;3925;48.636;9.516;2023-04-03T01:17:30;4.80;99.90
7762;DHT22;3925;48.636;9.516;2023-04-03T01:20:30;4.90;99.90
7762;DHT22;3925;48.636;9.516;2023-04-03T01:23:10;4.90;99.90
7762;DHT22;3925;48.636;9.516;2023-04-03T01:25:40;4.80;99.90
7762;DHT22;3925;48.636;9.516;2023-04-03T01:28:09;4.60;99.90
7762;DHT22;3925;48.636;9.516;2023-04-03T01:30:41;4.70;99.90
7762;DHT22;3925;48.636;9.516;2023-04-03T01:33:11;4.60;99.90
7762;DHT22;3925;48.636;9.516;2023-04-03T01:35:38;4.50;99.90
7762;DHT22;3925;48.636;9.516;2023-04-03T01:38:05;4.70;99.90
7762;DHT22;3925;48.636;9.516;2023-04-03T01:40:32;4.70;99.90
7762;DHT22;3925;48.636;9.516;2023-04-03T01:42:59;4.70;99.90
7762;DHT22;3925;48.636;9.516;2023-04-03T01:45:26;4.80;99.90
7762;DHT22;3925;48.636;9.516;2023-04-03T01:47:52;4.90;99.90
7762;DHT22;3925;48.636;9.516;2023-04-03T01:50:21;4.80;99.90
7762;DHT22;3925;48.636;9.516;2023-04-03T01:52:48;4.80;99.90
7762;DHT22;3925;48.636;9.516;2023-04-03T01:55:14;4.70;99.90
7762;DHT22;3925;48.636;9.516;2023-04-03T01:57:41;4.70;99.90
7762;DHT22;3925;48.636;9.516;2023-04-03T02:00:09;4.80;99.90
7762;DHT22;3925;48.636;9.516;2023-04-03T02:02:36;4.60;99.90
7762;DHT22;3925;48.636;9.516;2023-04-03T02:05:03;4.50;99.90
7762;DHT22;3925;48.636;9.516;2023-04-03T02:07:32;4.60;99.90
7762;DHT22;3925;48.636;9.516;2023-04-03T02:09:59;4.50;99.90
7762;DHT22;3925;48.636;9.516;2023-04-03T02:12:25;4.50;99.90
7762;DHT22;3925;48.636;9.516;2023-04-03T02:14:52;4.60;99.90
7762;DHT22;3925;48.636;9.516;2023-04-03T02:17:19;4.40;99.90
7762;DHT22;3925;48.636;9.516;2023-04-03T02:19:46;4.50;99.90
7762;DHT22;3925;48.636;9.516;2023-04-03T02:22:12;4.60;99.90
7762;DHT22;3925;48.636;9.516;2023-04-03T02:24:41;4.50;99.90
7762;DHT22;3925;48.636;9.516;2023-04-03T02:27:07;4.40;99.90
7762;DHT22;3925;48.636;9.516;2023-04-03T02:29:34;4.50;99.90
7762;DHT22;3925;48.636;9.516;2023-04-03T02:32:01;4.50;99.90
7762;DHT22;3925;48.636;9.516;2023-04-03T02:34:28;4.30;99.90
7762;DHT22;3925;48.636;9.516;2023-04-03T02:36:55;4.30;99.90
7762;DHT22;3925;48.636;9.516;2023-04-03T02:39:21;4.30;99.90
7762;DHT22;3925;48.636;9.516;2023-04-03T02:41:50;4.10;99.90
7762;DHT22;3925;48.636;9.516;2023-04-03T02:44:16;4.10;99.90
7762;DHT22;3925;48.636;9.516;2023-04-03T02:46:44;4.00;99.90
7762;DHT22;3925;48.636;9.516;2023-04-03T02:49:11;4.10;99.90
7762;DHT22;3925;48.636;9.516;2023-04-03T02:51:37;4.10;99.90
7762;DHT22;3925;48.636;9.516;2023-04-03T02:54:05;4.20;99.90
7762;DHT22;3925;48.636;9.516;2023-04-03T02:56:32;4.50;99.90
7762;DHT22;3925;48.636;9.516;2023-04-03T02:59:00;4.30;99.90
7762;DHT22;3925;48.636;9.516;2023-04-03T03:01:27;4.20;99.90
7762;DHT22;3925;48.636;9.516;2023-04-03T03:03:57;4.20;99.90
7762;DHT22;3925;48.636;9.516;2023-04-03T03:06:24;4.40;99.90
7762;DHT22;3925;48.636;9.516;2023-04-03T03:08:51;4.60;99.90
7762;DHT22;3925;48.636;9.516;2023-04-03T03:11:18;4.60;99.90
7762;DHT22;3925;48.636;9.516;2023-04-03T03:13:45;5.00;99.90
7762;DHT22;3925;48.636;9.516;2023-04-03T03:16:13;4.90;99.90
7762;DHT22;3925;48.636;9.516;2023-04-03T03:18:40;4.60;99.90
7762;DHT22;3925;48.636;9.516;2023-04-03T03:21:08;4.80;99.90
7762;DHT22;3925;48.636;9.516;2023-04-03T03:23:36;5.00;99.90
7762;DHT22;3925;48.636;9.516;2023-04-03T03:26:04;4.90;99.90
7762;DHT22;3925;48.636;9.516;2023-04-03T03:28:32;4.80;99.90
7762;DHT22;3925;48.636;9.516;2023-04-03T03:30:59;5.10;99.90
7762;DHT22;3925;48.636;9.516;2023-04-03T03:33:27;4.80;99.90
7762;DHT22;3925;48.636;9.516;2023-04-03T03:35:54;4.70;99.90
7762;DHT22;3925;48.636;9.516;2023-04-03T03:38:22;4.80;99.90
7762;DHT22;3925;48.636;9.516;2023-04-03T03:40:50;4.70;99.90
7762;DHT22;3925;48.636;9.516;2023-04-03T03:43:18;4.70;99.90
7762;DHT22;3925;48.636;9.516;2023-04-03T03:45:49;4.60;99.90
7762;DHT22;3925;48.636;9.516;2023-04-03T03:48:16;4.50;99.90
7762;DHT22;3925;48.636;9.516;2023-04-03T03:50:44;4.40;99.90
7762;DHT22;3925;48.636;9.516;2023-04-03T03:53:11;4.50;99.90
7762;DHT22;3925;48.636;9.516;2023-04-03T03:55:38;4.40;99.90
7762;DHT22;3925;48.636;9.516;2023-04-03T03:58:05;4.40;99.90
7762;DHT22;3925;48.636;9.516;2023-04-03T04:00:31;4.20;99.90
7762;DHT22;3925;48.636;9.516;2023-04-03T04:02:58;4.20;99.90
7762;DHT22;3925;48.636;9.516;2023-04-03T04:05:26;4.30;99.90
7762;DHT22;3925;48.636;9.516;2023-04-03T04:07:54;4.40;99.90
7762;DHT22;3925;48.636;9.516;2023-04-03T04:10:21;4.30;99.90
7762;DHT22;3925;48.636;9.516;2023-04-03T04:12:48;4.30;99.90
7762;DHT22;3925;48.636;9.516;2023-04-03T04:15:16;4.30;99.90
7762;DHT22;3925;48.636;9.516;2023-04-03T04:17:43;4.20;99.90
7762;DHT22;3925;48.636;9.516;2023-04-03T04:20:11;4.30;99.90
7762;DHT22;3925;48.636;9.516;2023-04-03T04:22:38;4.30;99.90
7762;DHT22;3925;48.636;9.516;2023-04-03T04:25:07;4.30;99.90
7762;DHT22;3925;48.636;9.516;2023-04-03T04:27:34;4.40;99.90
7762;DHT22;3925;48.636;9.516;2023-04-03T04:30:02;4.30;99.90
7762;DHT22;3925;48.636;9.516;2023-04-03T04:32:30;4.50;99.90
7762;DHT22;3925;48.636;9.516;2023-04-03T04:34:56;4.50;99.90
7762;DHT22;3925;48.636;9.516;2023-04-03T04:37:23;4.50;99.90
7762;DHT22;3925;48.636;9.516;2023-04-03T04:39:50;4.60;99.90
7762;DHT22;3925;48.636;9.516;2023-04-03T04:42:18;4.80;99.90
7762;DHT22;3925;48.636;9.516;2023-04-03T04:44:45;4.90;99.90
7762;DHT22;3925;48.636;9.516;2023-04-03T04:47:12;4.80;99.90
7762;DHT22;3925;48.636;9.516;2023-04-03T04:49:39;5.10;99.90
7762;DHT22;3925;48.636;9.516;2023-04-03T04:52:06;5.00;99.90
7762;DHT22;3925;48.636;9.516;2023-04-03T04:54:32;5.20;99.90
7762;DHT22;3925;48.636;9.516;2023-04-03T04:56:59;4.90;99.90
7762;DHT22;3925;48.636;9.516;2023-04-03T04:59:28;5.00;99.90
7762;DHT22;3925;48.636;9.516;2023-04-03T05:01:54;5.00;99.90
7762;DHT22;3925;48.636;9.516;2023-04-03T05:04:21;5.10;99.90
7762;DHT22;3925;48.636;9.516;2023-04-03T05:06:48;5.10;99.90
7762;DHT22;3925;48.636;9.516;2023-04-03T05:09:15;5.00;99.90
7762;DHT22;3925;48.636;9.516;2023-04-03T05:11:42;4.90;99.90
7762;DHT22;3925;48.636;9.516;2023-04-03T05:14:09;4.90;99.90
7762;DHT22;3925;48.636;9.516;2023-04-03T05:16:37;4.90;99.90
7762;DHT22;3925;48.636;9.516;2023-04-03T05:19:04;5.00;99.90
7762;DHT22;3925;48.636;9.516;2023-04-03T05:21:31;4.90;99.90
7762;DHT22;3925;48.636;9.516;2023-04-03T05:23:58;4.70;99.90
7762;DHT22;3925;48.636;9.516;2023-04-03T05:26:28;4.70;99.90
7762;DHT22;3925;48.636;9.516;2023-04-03T05:28:55;4.70;99.90
7762;DHT22;3925;48.636;9.516;2023-04-03T05:31:21;4.60;99.90
7762;DHT22;3925;48.636;9.516;2023-04-03T05:33:50;4.70;99.90
7762;DHT22;3925;48.636;9.516;2023-04-03T05:36:16;4.70;99.90
7762;DHT22;3925;48.636;9.516;2023-04-03T05:38:43;4.70;99.90
7762;DHT22;3925;48.636;9.516;2023-04-03T05:41:11;4.50;99.90
7762;DHT22;3925;48.636;9.516;2023-04-03T05:43:38;4.40;99.90
7762;DHT22;3925;48.636;9.516;2023-04-03T05:46:09;4.60;99.90
7762;DHT22;3925;48.636;9.516;2023-04-03T05:48:35;4.50;99.90
7762;DHT22;3925;48.636;9.516;2023-04-03T05:51:04;4.40;99.90
7762;DHT22;3925;48.636;9.516;2023-04-03T05:53:33;4.30;99.90
7762;DHT22;3925;48.636;9.516;2023-04-03T05:56:01;4.30;99.90
7762;DHT22;3925;48.636;9.516;2023-04-03T05:58:28;4.20;99.90
7762;DHT22;3925;48.636;9.516;2023-04-03T06:00:54;4.20;99.90
7762;DHT22;3925;48.636;9.516;2023-04-03T06:03:21;4.20;99.90
7762;DHT22;3925;48.636;9.516;2023-04-03T06:05:48;4.20;99.90
7762;DHT22;3925;48.636;9.516;2023-04-03T06:08:17;4.00;99.90
7762;DHT22;3925;48.636;9.516;2023-04-03T06:10:44;4.00;99.90
7762;DHT22;3925;48.636;9.516;2023-04-03T06:13:11;4.20;99.90
7762;DHT22;3925;48.636;9.516;2023-04-03T06:15:38;4.00;99.90
7762;DHT22;3925;48.636;9.516;2023-04-03T06:18:05;4.10;99.90
7762;DHT22;3925;48.636;9.516;2023-04-03T06:20:32;4.10;99.90
7762;DHT22;3925;48.636;9.516;2023-04-03T06:22:58;4.30;99.90
7762;DHT22;3925;48.636;9.516;2023-04-03T06:25:27;4.50;99.90
7762;DHT22;3925;48.636;9.516;2023-04-03T06:27:54;4.50;99.90
7762;DHT22;3925;48.636;9.516;2023-04-03T06:30:21;4.60;99.90
7762;DHT22;3925;48.636;9.516;2023-04-03T06:32:48;4.70;99.90
7762;DHT22;3925;48.636;9.516;2023-04-03T06:35:15;4.90;99.90
7762;DHT22;3925;48.636;9.516;2023-04-03T06:37:42;4.70;99.90
7762;DHT22;3925;48.636;9.516;2023-04-03T06:40:17;4.80;99.90
7762;DHT22;3925;48.636;9.516;2023-04-03T06:42:46;4.70;99.90
7762;DHT22;3925;48.636;9.516;2023-04-03T06:45:13;4.80;99.90
7762;DHT22;3925;48.636;9.516;2023-04-03T06:47:40;4.90;99.90
7762;DHT22;3925;48.636;9.516;2023-04-03T06:50:09;4.90;99.90
7762;DHT22;3925;48.636;9.516;2023-04-03T06:52:37;4.90;99.90
7762;DHT22;3925;48.636;9.516;2023-04-03T06:55:05;4.90;99.90
7762;DHT22;3925;48.636;9.516;2023-04-03T06:57:32;4.80;99.90
7762;DHT22;3925;48.636;9.516;2023-04-03T07:00:01;5.10;99.90
7762;DHT22;3925;48.636;9.516;2023-04-03T07:02:28;5.20;99.90
7762;DHT22;3925;48.636;9.516;2023-04-03T07:04:55;5.20;99.90
7762;DHT22;3925;48.636;9.516;2023-04-03T07:07:22;4.90;99.90
7762;DHT22;3925;48.636;9.516;2023-04-03T07:09:49;5.00;99.90
7762;DHT22;3925;48.636;9.516;2023-04-03T07:12:16;5.00;99.90
7762;DHT22;3925;48.636;9.516;2023-04-03T07:14:43;5.00;99.90
7762;DHT22;3925;48.636;9.516;2023-04-03T07:17:11;5.20;99.90
7762;DHT22;3925;48.636;9.516;2023-04-03T07:19:38;5.30;99.90
7762;DHT22;3925;48.636;9.516;2023-04-03T07:22:05;5.40;99.90
7762;DHT22;3925;48.636;9.516;2023-04-03T07:24:33;5.60;99.90
7762;DHT22;3925;48.636;9.516;2023-04-03T07:27:00;5.90;99.90
7762;DHT22;3925;48.636;9.516;2023-04-03T07:29:27;6.40;99.90
7762;DHT22;3925;48.636;9.516;2023-04-03T07:31:55;6.70;99.90
7762;DHT22;3925;48.636;9.516;2023-04-03T07:34:24;7.30;99.90
7762;DHT22;3925;48.636;9.516;2023-04-03T07:36:51;7.70;99.90
7762;DHT22;3925;48.636;9.516;2023-04-03T07:39:17;7.60;99.90
7762;DHT22;3925;48.636;9.516;2023-04-03T07:41:44;7.90;99.90
7762;DHT22;3925;48.636;9.516;2023-04-03T07:44:11;7.50;99.90
7762;DHT22;3925;48.636;9.516;2023-04-03T07:46:38;7.60;99.90
7762;DHT22;3925;48.636;9.516;2023-04-03T07:49:06;7.60;99.90
7762;DHT22;3925;48.636;9.516;2023-04-03T07:51:34;7.70;99.90
7762;DHT22;3925;48.636;9.516;2023-04-03T07:54:01;7.80;99.90
7762;DHT22;3925;48.636;9.516;2023-04-03T07:56:28;7.60;99.90
7762;DHT22;3925;48.636;9.516;2023-04-03T07:58:55;7.80;99.90
7762;DHT22;3925;48.636;9.516;2023-04-03T08:01:22;8.00;99.90
7762;DHT22;3925;48.636;9.516;2023-04-03T08:03:48;8.50;99.90
7762;DHT22;3925;48.636;9.516;2023-04-03T08:06:16;8.30;99.90
7762;DHT22;3925;48.636;9.516;2023-04-03T08:08:44;8.50;99.90
7762;DHT22;3925;48.636;9.516;2023-04-03T08:11:11;8.50;99.90
7762;DHT22;3925;48.636;9.516;2023-04-03T08:13:38;8.20;99.20
7762;DHT22;3925;48.636;9.516;2023-04-03T08:16:09;8.40;99.90
7762;DHT22;3925;48.636;9.516;2023-04-03T08:18:36;8.50;99.90
7762;DHT22;3925;48.636;9.516;2023-04-03T08:21:08;8.00;99.90
7762;DHT22;3925;48.636;9.516;2023-04-03T08:23:35;8.10;99.90
7762;DHT22;3925;48.636;9.516;2023-04-03T08:26:08;8.00;99.90
7762;DHT22;3925;48.636;9.516;2023-04-03T08:28:35;8.00;99.90
7762;DHT22;3925;48.636;9.516;2023-04-03T08:31:03;7.70;99.90
7762;DHT22;3925;48.636;9.516;2023-04-03T08:33:32;7.90;99.90
7762;DHT22;3925;48.636;9.516;2023-04-03T08:36:01;7.80;99.90
7762;DHT22;3925;48.636;9.516;2023-04-03T08:38:28;7.60;99.90
7762;DHT22;3925;48.636;9.516;2023-04-03T08:41:12;7.40;99.90
7762;DHT22;3925;48.636;9.516;2023-04-03T08:43:52;7.60;99.90
7762;DHT22;3925;48.636;9.516;2023-04-03T08:46:23;7.70;99.90
7762;DHT22;3925;48.636;9.516;2023-04-03T08:48:52;7.30;99.90
7762;DHT22;3925;48.636;9.516;2023-04-03T08:51:20;7.30;99.90
7762;DHT22;3925;48.636;9.516;2023-04-03T08:53:56;7.00;99.90
7762;DHT22;3925;48.636;9.516;2023-04-03T08:56:25;7.10;99.90
7762;DHT22;3925;48.636;9.516;2023-04-03T08:58:56;7.10;99.90
7762;DHT22;3925;48.636;9.516;2023-04-03T09:01:26;7.00;99.90
7762;DHT22;3925;48.636;9.516;2023-04-03T09:03:54;7.20;99.90
7762;DHT22;3925;48.636;9.516;2023-04-03T09:06:23;7.10;99.90
7762;DHT22;3925;48.636;9.516;2023-04-03T09:09:00;7.30;99.90
7762;DHT22;3925;48.636;9.516;2023-04-03T09:11:39;7.20;99.90
7762;DHT22;3925;48.636;9.516;2023-04-03T09:14:13;7.00;99.90
7762;DHT22;3925;48.636;9.516;2023-04-03T09:16:49;6.90;99.90
7762;DHT22;3925;48.636;9.516;2023-04-03T09:19:24;6.90;99.90
7762;DHT22;3925;48.636;9.516;2023-04-03T09:21:56;7.00;99.90
7762;DHT22;3925;48.636;9.516;2023-04-03T09:24:24;7.20;99.90
7762;DHT22;3925;48.636;9.516;2023-04-03T09:26:56;7.10;99.90
7762;DHT22;3925;48.636;9.516;2023-04-03T09:29:25;7.20;99.90
7762;DHT22;3925;48.636;9.516;2023-04-03T09:31:56;7.30;99.90
7762;DHT22;3925;48.636;9.516;2023-04-03T09:34:26;7.40;99.90
7762;DHT22;3925;48.636;9.516;2023-04-03T09:36:55;7.40;99.90
7762;DHT22;3925;48.636;9.516;2023-04-03T09:39:25;7.50;99.90
7762;DHT22;3925;48.636;9.516;2023-04-03T09:41:59;7.60;99.90
7762;DHT22;3925;48.636;9.516;2023-04-03T09:44:28;7.50;99.90
7762;DHT22;3925;48.636;9.516;2023-04-03T09:46:55;7.60;99.90
7762;DHT22;3925;48.636;9.516;2023-04-03T09:49:22;7.70;99.90
7762;DHT22;3925;48.636;9.516;2023-04-03T09:51:50;8.10;98.70
7762;DHT22;3925;48.636;9.516;2023-04-03T09:54:34;7.90;97.10
7762;DHT22;3925;48.636;9.516;2023-04-03T09:57:11;7.80;97.20
7762;DHT22;3925;48.636;9.516;2023-04-03T09:59:44;7.80;97.40
7762;DHT22;3925;48.636;9.516;2023-04-03T10:02:24;7.70;97.40
7762;DHT22;3925;48.636;9.516;2023-04-03T10:04:55;7.50;97.90
7762;DHT22;3925;48.636;9.516;2023-04-03T10:07:28;7.60;98.50
7762;DHT22;3925;48.636;9.516;2023-04-03T10:09:56;7.30;98.60
7762;DHT22;3925;48.636;9.516;2023-04-03T10:12:25;7.40;98.70
7762;DHT22;3925;48.636;9.516;2023-04-03T10:14:56;7.30;97.40
7762;DHT22;3925;48.636;9.516;2023-04-03T10:17:30;7.30;97.90
7762;DHT22;3925;48.636;9.516;2023-04-03T10:20:03;7.50;99.30
7762;DHT22;3925;48.636;9.516;2023-04-03T10:22:40;7.50;99.90
7762;DHT22;3925;48.636;9.516;2023-04-03T10:25:15;7.50;99.00
7762;DHT22;3925;48.636;9.516;2023-04-03T10:27:51;7.50;99.80
7762;DHT22;3925;48.636;9.516;2023-04-03T10:30:32;7.20;99.60
7762;DHT22;3925;48.636;9.516;2023-04-03T10:33:10;7.00;99.20
7762;DHT22;3925;48.636;9.516;2023-04-03T10:35:47;6.90;99.80
7762;DHT22;3925;48.636;9.516;2023-04-03T10:38:22;6.80;99.90
7762;DHT22;3925;48.636;9.516;2023-04-03T10:40:57;6.70;99.90
7762;DHT22;3925;48.636;9.516;2023-04-03T10:43:33;6.70;99.90
7762;DHT22;3925;48.636;9.516;2023-04-03T10:46:06;6.80;99.90
7762;DHT22;3925;48.636;9.516;2023-04-03T10:48:43;6.80;99.90
7762;DHT22;3925;48.636;9.516;2023-04-03T10:51:20;7.00;99.40
7762;DHT22;3925;48.636;9.516;2023-04-03T10:53:55;7.30;99.90
7762;DHT22;3925;48.636;9.516;2023-04-03T10:56:30;7.50;99.50
7762;DHT22;3925;48.636;9.516;2023-04-03T10:59:01;7.70;98.80
7762;DHT22;3925;48.636;9.516;2023-04-03T11:01:33;7.70;98.40
7762;DHT22;3925;48.636;9.516;2023-04-03T11:04:03;8.00;98.10
7762;DHT22;3925;48.636;9.516;2023-04-03T11:06:34;7.70;94.90
7762;DHT22;3925;48.636;9.516;2023-04-03T11:09:09;7.60;96.20
7762;DHT22;3925;48.636;9.516;2023-04-03T11:11:39;7.60;97.90
7762;DHT22;3925;48.636;9.516;2023-04-03T11:14:14;7.70;96.80
7762;DHT22;3925;48.636;9.516;2023-04-03T11:16:47;7.90;96.90
7762;DHT22;3925;48.636;9.516;2023-04-03T11:19:18;7.90;96.50
7762;DHT22;3925;48.636;9.516;2023-04-03T11:21:52;7.90;96.20
7762;DHT22;3925;48.636;9.516;2023-04-03T11:24:25;7.90;96.40
7762;DHT22;3925;48.636;9.516;2023-04-03T11:26:53;7.90;96.70
7762;DHT22;3925;48.636;9.516;2023-04-03T11:29:24;7.80;96.10
7762;DHT22;3925;48.636;9.516;2023-04-03T11:32:08;7.70;95.40
7762;DHT22;3925;48.636;9.516;2023-04-03T11:34:39;7.80;95.90
7762;DHT22;3925;48.636;9.516;2023-04-03T11:37:16;7.90;95.30
7762;DHT22;3925;48.636;9.516;2023-04-03T11:39:52;7.70;95.30
7762;DHT22;3925;48.636;9.516;2023-04-03T11:42:30;7.80;95.10
7762;DHT22;3925;48.636;9.516;2023-04-03T11:45:35;7.70;95.10
7762;DHT22;3925;48.636;9.516;2023-04-03T11:48:05;7.60;94.70
7762;DHT22;3925;48.636;9.516;2023-04-03T11:50:42;7.50;94.60
7762;DHT22;3925;48.636;9.516;2023-04-03T11:53:33;7.40;95.30
7762;DHT22;3925;48.636;9.516;2023-04-03T11:56:29;7.50;95.40
7762;DHT22;3925;48.636;9.516;2023-04-03T11:59:19;7.70;94.90
7762;DHT22;3925;48.636;9.516;2023-04-03T12:01:48;7.60;94.10
7762;DHT22;3925;48.636;9.516;2023-04-03T12:04:17;7.60;94.70
7762;DHT22;3925;48.636;9.516;2023-04-03T12:07:11;7.60;94.40
7762;DHT22;3925;48.636;9.516;2023-04-03T12:10:16;7.40;94.20
7762;DHT22;3925;48.636;9.516;2023-04-03T12:12:56;7.50;94.40
7762;DHT22;3925;48.636;9.516;2023-04-03T12:15:47;7.30;92.90
7762;DHT22;3925;48.636;9.516;2023-04-03T12:18:42;7.10;93.40
7762;DHT22;3925;48.636;9.516;2023-04-03T12:21:09;7.30;93.90
7762;DHT22;3925;48.636;9.516;2023-04-03T12:23:59;7.50;94.40
7762;DHT22;3925;48.636;9.516;2023-04-03T12:26:30;7.90;93.80
7762;DHT22;3925;48.636;9.516;2023-04-03T12:28:59;8.00;94.60
7762;DHT22;3925;48.636;9.516;2023-04-03T12:31:39;8.00;93.50
7762;DHT22;3925;48.636;9.516;2023-04-03T12:34:24;7.90;92.60
7762;DHT22;3925;48.636;9.516;2023-04-03T12:37:01;8.00;92.80
7762;DHT22;3925;48.636;9.516;2023-04-03T12:39:53;8.00;93.20
7762;DHT22;3925;48.636;9.516;2023-04-03T12:42:36;8.00;94.00
7762;DHT22;3925;48.636;9.516;2023-04-03T12:45:17;7.90;94.60
7762;DHT22;3925;48.636;9.516;2023-04-03T12:47:49;8.10;93.70
7762;DHT22;3925;48.636;9.516;2023-04-03T12:50:20;7.90;93.50
7762;DHT22;3925;48.636;9.516;2023-04-03T12:52:54;7.80;94.20
7762;DHT22;3925;48.636;9.516;2023-04-03T12:55:22;8.00;94.20
7762;DHT22;3925;48.636;9.516;2023-04-03T12:57:49;7.90;93.50
7762;DHT22;3925;48.636;9.516;2023-04-03T13:00:31;7.70;93.00
7762;DHT22;3925;48.636;9.516;2023-04-03T13:02:59;7.90;93.90
7762;DHT22;3925;48.636;9.516;2023-04-03T13:05:26;7.90;93.20
7762;DHT22;3925;48.636;9.516;2023-04-03T13:07:58;7.90;92.90
7762;DHT22;3925;48.636;9.516;2023-04-03T13:10:25;7.80;92.50
7762;DHT22;3925;48.636;9.516;2023-04-03T13:12:55;7.90;93.40
7762;DHT22;3925;48.636;9.516;2023-04-03T13:15:25;8.10;93.60
7762;DHT22;3925;48.636;9.516;2023-04-03T13:17:53;8.30;93.70
7762;DHT22;3925;48.636;9.516;2023-04-03T13:20:24;8.10;93.60
7762;DHT22;3925;48.636;9.516;2023-04-03T13:22:56;8.00;93.70
7762;DHT22;3925;48.636;9.516;2023-04-03T13:25:26;8.10;94.30
7762;DHT22;3925;48.636;9.516;2023-04-03T13:27:54;8.30;93.80
7762;DHT22;3925;48.636;9.516;2023-04-03T13:30:27;8.60;93.90
7762;DHT22;3925;48.636;9.516;2023-04-03T13:32:56;8.60;91.60
7762;DHT22;3925;48.636;9.516;2023-04-03T13:35:34;8.50;90.90
7762;DHT22;3925;48.636;9.516;2023-04-03T13:38:05;8.40;91.30
7762;DHT22;3925;48.636;9.516;2023-04-03T13:40:33;8.40;91.80
7762;DHT22;3925;48.636;9.516;2023-04-03T13:43:06;8.40;91.30
7762;DHT22;3925;48.636;9.516;2023-04-03T13:45:35;8.30;90.90
7762;DHT22;3925;48.636;9.516;2023-04-03T13:48:17;8.30;92.20
7762;DHT22;3925;48.636;9.516;2023-04-03T13:50:54;8.10;90.30
7762;DHT22;3925;48.636;9.516;2023-04-03T13:53:21;8.20;91.00
7762;DHT22;3925;48.636;9.516;2023-04-03T13:55:57;8.40;90.90
7762;DHT22;3925;48.636;9.516;2023-04-03T13:58:26;8.40;91.00
7762;DHT22;3925;48.636;9.516;2023-04-03T14:00:58;8.50;90.00
7762;DHT22;3925;48.636;9.516;2023-04-03T14:03:29;8.70;90.90
7762;DHT22;3925;48.636;9.516;2023-04-03T14:05:57;8.60;89.60
7762;DHT22;3925;48.636;9.516;2023-04-03T14:08:25;8.80;88.90
7762;DHT22;3925;48.636;9.516;2023-04-03T14:10:53;8.50;88.90
7762;DHT22;3925;48.636;9.516;2023-04-03T14:13:20;8.40;88.80
7762;DHT22;3925;48.636;9.516;2023-04-03T14:15:48;8.60;90.70
7762;DHT22;3925;48.636;9.516;2023-04-03T14:18:20;8.60;88.60
7762;DHT22;3925;48.636;9.516;2023-04-03T14:20:47;8.40;88.70
7762;DHT22;3925;48.636;9.516;2023-04-03T14:23:15;8.10;88.40
7762;DHT22;3925;48.636;9.516;2023-04-03T14:25:43;8.20;89.00
7762;DHT22;3925;48.636;9.516;2023-04-03T14:28:16;8.10;90.30
7762;DHT22;3925;48.636;9.516;2023-04-03T14:30:44;8.10;91.00
7762;DHT22;3925;48.636;9.516;2023-04-03T14:33:13;8.00;91.80
7762;DHT22;3925;48.636;9.516;2023-04-03T14:35:42;7.80;91.40
7762;DHT22;3925;48.636;9.516;2023-04-03T14:38:20;8.00;92.10
7762;DHT22;3925;48.636;9.516;2023-04-03T14:40:48;7.90;91.60
7762;DHT22;3925;48.636;9.516;2023-04-03T14:43:15;7.70;91.30
7762;DHT22;3925;48.636;9.516;2023-04-03T14:45:43;7.80;90.90
7762;DHT22;3925;48.636;9.516;2023-04-03T14:48:16;7.80;91.10
7762;DHT22;3925;48.636;9.516;2023-04-03T14:50:45;7.90;90.80
7762;DHT22;3925;48.636;9.516;2023-04-03T14:53:13;7.80;91.30
7762;DHT22;3925;48.636;9.516;2023-04-03T14:55:43;7.70;90.80
7762;DHT22;3925;48.636;9.516;2023-04-03T14:58:13;7.60;89.30
7762;DHT22;3925;48.636;9.516;2023-04-03T15:00:42;7.60;90.20
7762;DHT22;3925;48.636;9.516;2023-04-03T15:03:13;7.50;90.30
7762;DHT22;3925;48.636;9.516;2023-04-03T15:05:41;7.80;90.40
7762;DHT22;3925;48.636;9.516;2023-04-03T15:08:18;8.00;91.00
7762;DHT22;3925;48.636;9.516;2023-04-03T15:10:46;8.00;90.30
7762;DHT22;3925;48.636;9.516;2023-04-03T15:13:13;8.00;90.30
7762;DHT22;3925;48.636;9.516;2023-04-03T15:15:40;7.80;89.60
7762;DHT22;3925;48.636;9.516;2023-04-03T15:18:12;7.70;90.50
7762;DHT22;3925;48.636;9.516;2023-04-03T15:20:40;7.70;89.60
7762;DHT22;3925;48.636;9.516;2023-04-03T15:23:10;7.60;89.90
7762;DHT22;3925;48.636;9.516;2023-04-03T15:25:38;7.60;89.70
7762;DHT22;3925;48.636;9.516;2023-04-03T15:28:05;7.60;89.40
7762;DHT22;3925;48.636;9.516;2023-04-03T15:30:32;7.70;90.70
7762;DHT22;3925;48.636;9.516;2023-04-03T15:33:01;7.60;90.40
7762;DHT22;3925;48.636;9.516;2023-04-03T15:35:28;7.80;90.70
7762;DHT22;3925;48.636;9.516;2023-04-03T15:37:55;7.70;87.20
7762;DHT22;3925;48.636;9.516;2023-04-03T15:40:24;7.60;87.30
7762;DHT22;3925;48.636;9.516;2023-04-03T15:42:51;7.80;87.00
7762;DHT22;3925;48.636;9.516;2023-04-03T15:45:18;7.80;87.10
7762;DHT22;3925;48.636;9.516;2023-04-03T15:47:45;7.60;86.40
7762;DHT22;3925;48.636;9.516;2023-04-03T15:50:12;7.70;90.10
7762;DHT22;3925;48.636;9.516;2023-04-03T15:52:38;7.70;88.30
7762;DHT22;3925;48.636;9.516;2023-04-03T15:55:06;7.80;90.00
7762;DHT22;3925;48.636;9.516;2023-04-03T15:57:34;7.80;89.40
7762;DHT22;3925;48.636;9.516;2023-04-03T16:00:01;7.90;88.50
7762;DHT22;3925;48.636;9.516;2023-04-03T16:02:28;7.90;88.70
7762;DHT22;3925;48.636;9.516;2023-04-03T16:04:55;7.80;87.00
7762;DHT22;3925;48.636;9.516;2023-04-03T16:07:22;7.70;88.60
7762;DHT22;3925;48.636;9.516;2023-04-03T16:09:49;7.60;90.00
7762;DHT22;3925;48.636;9.516;2023-04-03T16:12:15;7.40;88.60
7762;DHT22;3925;48.636;9.516;2023-04-03T16:14:44;7.20;89.70
7762;DHT22;3925;48.636;9.516;2023-04-03T16:17:11;7.30;90.30
7762;DHT22;3925;48.636;9.516;2023-04-03T16:19:38;7.30;90.50
7762;DHT22;3925;48.636;9.516;2023-04-03T16:22:05;7.30;90.70
7762;DHT22;3925;48.636;9.516;2023-04-03T16:24:32;7.30;91.20
7762;DHT22;3925;48.636;9.516;2023-04-03T16:26:58;7.20;90.60
7762;DHT22;3925;48.636;9.516;2023-04-03T16:29:25;7.20;90.90
7762;DHT22;3925;48.636;9.516;2023-04-03T16:31:54;7.40;90.60
7762;DHT22;3925;48.636;9.516;2023-04-03T16:34:20;7.40;90.10
7762;DHT22;3925;48.636;9.516;2023-04-03T16:36:48;7.30;90.90